createdAt,value
2023-03-31T17:50:46.905Z,43.33
2023-03-31T17:53:19.347Z,47.00
2023-03-31T17:55:49.989Z,35.78
2023-03-31T17:58:21.657Z,48.47
2023-03-31T18:00:54.902Z,53.53
2023-03-31T18:03:25.883Z,42.70
2023-03-31T18:05:56.343Z,52.75
2023-03-31T18:08:27.144Z,55.72
2023-03-31T18:10:57.406Z,47.08
2023-03-31T18:13:28.314Z,41.95
2023-03-31T18:16:00.185Z,77.68
2023-03-31T18:18:31.743Z,60.60
2023-03-31T18:21:07.165Z,48.30
2023-03-31T18:23:39.080Z,49.90
2023-03-31T18:26:11.619Z,79.90
2023-03-31T18:28:44.523Z,83.75
2023-03-31T18:31:14.939Z,77.88
2023-03-31T18:33:46.778Z,68.75
2023-03-31T18:36:23.118Z,61.25
2023-03-31T18:38:54.800Z,54.83
2023-03-31T18:41:27.296Z,48.65
2023-03-31T18:43:59.086Z,43.05
2023-03-31T18:46:32.535Z,62.42
2023-03-31T18:49:04.246Z,68.50
2023-03-31T18:51:35.420Z,71.80
2023-03-31T18:54:06.753Z,55.90
2023-03-31T18:56:38.389Z,50.88
2023-03-31T18:59:08.638Z,46.00
2023-03-31T19:01:41.580Z,44.97
2023-03-31T19:04:12.941Z,78.55
2023-03-31T19:06:44.372Z,76.03
2023-03-31T19:09:15.970Z,73.10
2023-03-31T19:11:47.052Z,67.00
2023-03-31T19:14:23.845Z,43.33
2023-03-31T19:16:55.120Z,45.45
2023-03-31T19:19:25.585Z,58.60
2023-03-31T19:21:56.029Z,45.78
2023-03-31T19:24:27.483Z,61.55
2023-03-31T19:26:59.739Z,53.55
2023-03-31T19:29:33.035Z,40.00
2023-03-31T19:32:04.845Z,64.13
2023-03-31T19:34:37.440Z,55.95
2023-03-31T19:37:09.432Z,67.80
2023-03-31T19:39:40.913Z,55.45
2023-03-31T19:42:12.373Z,70.13
2023-03-31T19:44:45.758Z,58.22
2023-03-31T19:47:17.564Z,52.78
2023-03-31T19:49:48.844Z,64.93
2023-03-31T19:52:20.334Z,51.88
2023-03-31T19:54:50.963Z,84.47
2023-03-31T19:57:21.429Z,52.90
2023-03-31T19:59:52.970Z,51.67
2023-03-31T20:02:23.852Z,63.38
2023-03-31T20:04:55.396Z,73.82
2023-03-31T20:07:26.068Z,52.53
2023-03-31T20:09:56.536Z,48.63
2023-03-31T20:12:27.579Z,70.78
2023-03-31T20:14:58.017Z,57.70
2023-03-31T20:17:28.783Z,53.28
2023-03-31T20:19:59.162Z,44.63
2023-03-31T20:22:30.501Z,47.22
2023-03-31T20:25:02.178Z,60.47
2023-03-31T20:27:33.129Z,58.15
2023-03-31T20:30:03.667Z,54.00
2023-03-31T20:32:34.499Z,46.72
2023-03-31T20:35:05.788Z,38.53
2023-03-31T20:37:36.962Z,51.72
2023-03-31T20:40:10.317Z,70.28
2023-03-31T20:42:41.374Z,64.15
2023-03-31T20:45:12.708Z,63.08
2023-03-31T20:47:42.984Z,68.43
2023-03-31T20:50:13.178Z,61.53
2023-03-31T20:52:46.384Z,60.40
2023-03-31T20:55:16.803Z,64.72
2023-03-31T20:57:48.669Z,64.20
2023-03-31T21:00:21.812Z,63.17
2023-03-31T21:02:52.067Z,63.65
2023-03-31T21:05:22.875Z,54.30
2023-03-31T21:07:54.684Z,50.72
2023-03-31T21:10:25.900Z,62.35
2023-03-31T21:12:57.029Z,54.60
2023-03-31T21:15:28.099Z,48.85
2023-03-31T21:17:58.613Z,69.35
2023-03-31T21:20:28.754Z,58.55
2023-03-31T21:23:00.593Z,46.88
2023-03-31T21:25:33.996Z,48.53
2023-03-31T21:28:05.979Z,51.20
2023-03-31T21:30:37.198Z,58.65
2023-03-31T21:33:08.847Z,56.15
2023-03-31T21:35:39.844Z,49.30
2023-03-31T21:38:11.220Z,56.80
2023-03-31T21:40:42.029Z,43.60
2023-03-31T21:43:12.365Z,38.45
2023-03-31T21:45:44.245Z,40.78
2023-03-31T21:48:15.859Z,41.25
2023-03-31T21:50:49.086Z,48.67
2023-03-31T21:53:20.048Z,55.83
2023-03-31T21:55:52.883Z,59.05
2023-03-31T21:58:25.552Z,51.97
2023-03-31T22:01:02.675Z,39.17
2023-03-31T22:03:35.667Z,22.35
2023-03-31T22:06:11.668Z,28.58
2023-03-31T22:08:43.604Z,22.15
2023-03-31T22:11:15.682Z,16.90
2023-03-31T22:13:47.400Z,18.10
2023-03-31T22:16:24.384Z,18.60
2023-03-31T22:18:57.331Z,20.58
2023-03-31T22:21:42.985Z,23.45
2023-03-31T22:24:15.804Z,19.88
2023-03-31T22:26:46.585Z,19.85
2023-03-31T22:29:18.624Z,17.23
2023-03-31T22:31:50.300Z,29.42
2023-03-31T22:34:24.409Z,19.20
2023-03-31T22:36:55.711Z,18.75
2023-03-31T22:39:26.512Z,14.68
2023-03-31T22:41:57.266Z,18.48
2023-03-31T22:44:27.760Z,19.90
2023-03-31T22:46:58.675Z,17.88
2023-03-31T22:49:28.701Z,18.75
2023-03-31T22:51:59.767Z,22.85
2023-03-31T22:54:30.199Z,16.58
2023-03-31T22:57:01.045Z,16.33
2023-03-31T22:59:33.483Z,51.17
2023-03-31T23:02:04.722Z,44.95
2023-03-31T23:04:34.990Z,17.85
2023-03-31T23:07:06.078Z,16.77
2023-03-31T23:09:37.233Z,14.77
2023-03-31T23:12:07.694Z,25.55
2023-03-31T23:14:40.303Z,11.43
2023-03-31T23:17:11.938Z,12.70
2023-03-31T23:19:49.711Z,11.60
2023-03-31T23:22:20.435Z,7.78
2023-03-31T23:24:51.160Z,6.00
2023-03-31T23:27:22.530Z,5.03
2023-03-31T23:29:55.711Z,4.45
2023-03-31T23:32:26.385Z,6.10
2023-03-31T23:34:59.278Z,5.55
2023-03-31T23:37:29.649Z,4.15
2023-03-31T23:40:01.107Z,3.03
2023-03-31T23:42:32.604Z,4.25
2023-03-31T23:45:03.570Z,8.73
2023-03-31T23:47:34.129Z,18.27
2023-03-31T23:50:05.412Z,2.70
2023-03-31T23:52:37.432Z,4.78
2023-03-31T23:55:08.698Z,4.15
2023-03-31T23:57:39.880Z,3.40
